Time;durP1;ratioP1;P1;durP2;ratioP2;P2;SDS_P1;SDS_P2;PMS_P1;PMS_P2;Temp;Humidity;BMP_temperature;BMP_pressure;BME280_temperature;BME280_humidity;BME280_pressure;Samples;Min_cycle;Max_cycle;Signal;HPM_P1;HPM_P2
2023/12/27 00:00:31;;;;;;;52.93;27.20;;;4.00;99.90;;;;;;4191082;28;20277;-60
2023/12/27 00:02:32;;;;;;;49.37;27.77;;;4.00;99.90;;;;;;4192243;28;20281;-60
2023/12/27 00:04:33;;;;;;;51.33;27.33;;;3.90;99.90;;;;;;4191575;28;20754;-60
2023/12/27 00:06:34;;;;;;;49.87;25.57;;;3.80;99.90;;;;;;4192392;28;20753;-60
2023/12/27 00:08:35;;;;;;;48.97;26.50;;;3.80;99.90;;;;;;4192441;28;20291;-60
2023/12/27 00:10:37;;;;;;;40.57;23.30;;;3.80;99.90;;;;;;4191869;28;20335;-58
2023/12/27 00:12:38;;;;;;;42.10;22.27;;;3.70;99.90;;;;;;4192043;28;20672;-59
2023/12/27 00:14:39;;;;;;;30.33;17.83;;;3.70;99.90;;;;;;4192312;28;20281;-60
2023/12/27 00:16:40;;;;;;;32.27;17.63;;;3.70;99.90;;;;;;4192856;28;20347;-59
2023/12/27 00:18:41;;;;;;;32.80;18.00;;;3.70;99.90;;;;;;4191499;28;20285;-60
2023/12/27 00:20:43;;;;;;;31.07;17.67;;;3.60;99.90;;;;;;4193387;28;20306;-61
2023/12/27 00:22:44;;;;;;;34.97;19.97;;;3.60;99.90;;;;;;4191776;28;20289;-60
2023/12/27 00:24:45;;;;;;;34.13;19.00;;;3.50;99.90;;;;;;4193415;28;20261;-59
2023/12/27 00:26:46;;;;;;;32.30;18.23;;;3.50;99.90;;;;;;4192010;28;20257;-58
2023/12/27 00:28:48;;;;;;;38.73;19.00;;;3.40;99.90;;;;;;4193249;28;20261;-59
2023/12/27 00:30:51;;;;;;;32.20;17.67;;;3.40;99.90;;;;;;4191174;28;20285;-60
2023/12/27 00:32:52;;;;;;;34.20;18.73;;;3.40;99.90;;;;;;4192340;28;20335;-60
2023/12/27 00:34:53;;;;;;;35.03;18.77;;;3.40;99.90;;;;;;4192214;28;20315;-60
2023/12/27 00:36:54;;;;;;;30.23;17.43;;;3.40;99.90;;;;;;4192075;28;20323;-61
2023/12/27 00:38:56;;;;;;;36.60;20.17;;;3.40;99.90;;;;;;4191501;28;20273;-60
2023/12/27 00:40:59;;;;;;;32.07;18.03;;;3.40;99.90;;;;;;4191880;28;20316;-60
2023/12/27 00:43:00;;;;;;;39.60;22.33;;;3.40;99.90;;;;;;4192543;28;20285;-60
2023/12/27 00:45:02;;;;;;;38.47;23.70;;;3.40;99.90;;;;;;4191425;28;20378;-60
2023/12/27 00:47:03;;;;;;;41.13;22.73;;;3.50;99.90;;;;;;4192635;28;20273;-61
2023/12/27 00:49:04;;;;;;;41.60;22.30;;;3.40;99.90;;;;;;4191899;28;20273;-60
2023/12/27 00:51:05;;;;;;;45.73;25.10;;;3.40;99.90;;;;;;4191958;28;20317;-61
2023/12/27 00:53:07;;;;;;;48.40;23.57;;;3.40;99.90;;;;;;4191847;28;20265;-60
2023/12/27 00:55:08;;;;;;;40.60;22.10;;;3.40;99.90;;;;;;4192218;28;20680;-60
2023/12/27 00:57:09;;;;;;;37.87;22.87;;;3.40;99.90;;;;;;4191581;28;20741;-60
2023/12/27 00:59:10;;;;;;;40.60;19.87;;;3.30;99.90;;;;;;4193041;28;20274;-60
2023/12/27 01:01:12;;;;;;;37.00;19.73;;;3.20;99.90;;;;;;4190688;28;20285;-59
2023/12/27 01:03:13;;;;;;;32.67;16.43;;;3.10;99.90;;;;;;4174300;28;20294;-59
2023/12/27 01:05:14;;;;;;;38.10;17.97;;;3.00;99.90;;;;;;4190651;28;20323;-60
2023/12/27 01:07:16;;;;;;;37.23;18.37;;;2.90;99.90;;;;;;4192050;28;20316;-59
2023/12/27 01:09:17;;;;;;;34.77;18.73;;;2.90;99.90;;;;;;4193625;28;20607;-60
2023/12/27 01:11:18;;;;;;;33.27;16.60;;;2.90;99.90;;;;;;4194598;28;20258;-61
2023/12/27 01:13:19;;;;;;;30.97;16.63;;;2.90;99.90;;;;;;4195201;28;20265;-60
2023/12/27 01:15:20;;;;;;;37.63;17.13;;;2.90;99.90;;;;;;4194210;28;20269;-60
2023/12/27 01:17:21;;;;;;;55.27;26.20;;;2.80;99.90;;;;;;4195914;28;20308;-60
2023/12/27 01:19:23;;;;;;;46.90;25.23;;;2.70;99.90;;;;;;4194112;28;20258;-60
2023/12/27 01:21:24;;;;;;;32.17;19.53;;;2.60;99.90;;;;;;4195673;28;20262;-60
2023/12/27 01:23:25;;;;;;;46.70;24.50;;;2.50;99.90;;;;;;4193805;28;20358;-60
2023/12/27 01:25:27;;;;;;;43.03;24.17;;;2.50;99.90;;;;;;4195490;28;20619;-59
2023/12/27 01:27:28;;;;;;;44.73;25.33;;;2.50;99.90;;;;;;4193662;28;20319;-59
2023/12/27 01:29:29;;;;;;;53.37;27.47;;;2.50;99.90;;;;;;4177348;28;20274;-60
2023/12/27 01:31:30;;;;;;;50.80;27.80;;;2.50;99.90;;;;;;4193701;28;20680;-59
2023/12/27 01:33:31;;;;;;;48.30;26.70;;;2.50;99.90;;;;;;4195231;28;20366;-60
2023/12/27 01:35:32;;;;;;;57.43;29.43;;;2.40;99.90;;;;;;4193324;28;20290;-59
2023/12/27 01:37:33;;;;;;;51.43;28.40;;;2.40;99.90;;;;;;4194998;28;20680;-60
2023/12/27 01:39:35;;;;;;;53.60;27.87;;;2.30;99.90;;;;;;4194322;28;20273;-59
2023/12/27 01:41:36;;;;;;;54.20;27.87;;;2.30;99.90;;;;;;4194964;28;20342;-60
2023/12/27 01:43:37;;;;;;;48.40;25.53;;;2.30;99.90;;;;;;4194267;28;20363;-60
2023/12/27 01:45:38;;;;;;;50.27;25.03;;;2.20;99.90;;;;;;4193782;28;20311;-60
2023/12/27 01:47:41;;;;;;;52.43;27.80;;;2.20;99.90;;;;;;4195436;28;20814;-60
2023/12/27 01:49:42;;;;;;;45.73;23.70;;;2.20;99.90;;;;;;4194126;28;20311;-60
2023/12/27 01:51:43;;;;;;;52.27;27.77;;;2.30;99.90;;;;;;4194970;28;20282;-61
2023/12/27 01:53:44;;;;;;;44.17;25.83;;;2.30;99.90;;;;;;4194267;28;20311;-61
2023/12/27 01:55:47;;;;;;;47.17;24.03;;;2.20;99.90;;;;;;4194926;28;20314;-60
2023/12/27 01:57:50;;;;;;;44.40;24.80;;;2.30;99.90;;;;;;4194076;28;20262;-60
2023/12/27 01:59:52;;;;;;;45.83;24.50;;;2.30;99.90;;;;;;4194689;28;20277;-60
2023/12/27 02:01:53;;;;;;;46.57;24.70;;;2.20;99.90;;;;;;4194059;28;20254;-60
2023/12/27 02:03:55;;;;;;;46.67;24.57;;;2.20;99.90;;;;;;4194191;28;20801;-59
2023/12/27 02:05:58;;;;;;;42.77;23.70;;;2.30;99.90;;;;;;4194014;28;20296;-60
2023/12/27 02:07:59;;;;;;;43.07;23.43;;;2.20;99.90;;;;;;4194475;28;20269;-60
2023/12/27 02:10:01;;;;;;;47.40;24.30;;;2.30;99.90;;;;;;4193926;28;20257;-60
2023/12/27 02:12:03;;;;;;;41.67;23.73;;;2.30;99.90;;;;;;4194724;28;20262;-60
2023/12/27 02:14:07;;;;;;;46.57;23.30;;;2.30;99.90;;;;;;4193979;28;20757;-60
2023/12/27 02:16:08;;;;;;;42.87;23.83;;;2.30;99.90;;;;;;4194093;28;20623;-60
2023/12/27 02:18:10;;;;;;;40.07;21.87;;;2.30;99.90;;;;;;4194392;28;20262;-60
2023/12/27 02:20:11;;;;;;;39.17;22.33;;;2.30;99.90;;;;;;4193262;28;20261;-60
2023/12/27 02:22:19;;;;;;;45.10;24.07;;;2.20;99.90;;;;;;4194534;28;20353;-60
2023/12/27 02:24:22;;;;;;;52.60;24.60;;;2.20;99.90;;;;;;4193726;28;20335;-60
2023/12/27 02:26:23;;;;;;;48.10;24.53;;;2.10;99.90;;;;;;4194538;28;20338;-60
2023/12/27 02:28:24;;;;;;;42.90;23.00;;;2.10;99.90;;;;;;4193618;28;20319;-60
2023/12/27 02:30:25;;;;;;;44.77;24.97;;;1.90;99.90;;;;;;4194398;28;20782;-60
2023/12/27 02:32:26;;;;;;;52.23;25.90;;;1.90;99.90;;;;;;4193496;28;20757;-60
2023/12/27 02:34:28;;;;;;;48.97;26.03;;;1.90;99.90;;;;;;4194651;28;20273;-61
2023/12/27 02:36:29;;;;;;;40.93;23.30;;;1.80;99.90;;;;;;4192677;28;20327;-59
2023/12/27 02:38:30;;;;;;;38.40;23.60;;;1.80;99.90;;;;;;4194395;28;20319;-60
2023/12/27 02:40:31;;;;;;;36.23;22.40;;;1.80;99.90;;;;;;4192876;28;20265;-60
2023/12/27 02:42:33;;;;;;;40.07;21.93;;;1.70;99.90;;;;;;4194249;28;20273;-60
2023/12/27 02:44:34;;;;;;;38.80;23.57;;;1.70;99.90;;;;;;4193364;28;20688;-60
2023/12/27 02:46:35;;;;;;;40.13;22.40;;;1.70;99.90;;;;;;4193718;28;20826;-61
2023/12/27 02:48:36;;;;;;;38.40;21.57;;;1.70;99.90;;;;;;4193830;28;20262;-61
2023/12/27 02:50:37;;;;;;;41.87;23.10;;;1.60;99.90;;;;;;4193579;28;20319;-59
2023/12/27 02:52:38;;;;;;;38.43;20.57;;;1.60;99.90;;;;;;4194009;28;20674;-60
2023/12/27 02:54:40;;;;;;;34.67;21.03;;;1.50;99.90;;;;;;4193253;28;20265;-60
2023/12/27 02:56:41;;;;;;;42.43;21.57;;;1.50;99.90;;;;;;4193669;28;20751;-60
2023/12/27 02:58:42;;;;;;;44.17;21.97;;;1.50;99.90;;;;;;4192939;28;20800;-61
2023/12/27 03:00:46;;;;;;;37.67;20.73;;;1.50;99.90;;;;;;4194146;28;20737;-60
2023/12/27 03:02:47;;;;;;;34.77;19.53;;;1.50;99.90;;;;;;4191980;28;20826;-59
2023/12/27 03:04:48;;;;;;;42.97;21.97;;;1.50;99.90;;;;;;4194111;28;20273;-60
2023/12/27 03:06:49;;;;;;;39.73;21.10;;;1.50;99.90;;;;;;4192335;28;20277;-60
2023/12/27 03:08:53;;;;;;;45.00;21.80;;;1.50;99.90;;;;;;4193991;28;20686;-60
2023/12/27 03:10:55;;;;;;;39.73;22.27;;;1.50;99.90;;;;;;4192154;28;20764;-60
2023/12/27 03:12:57;;;;;;;39.83;21.23;;;1.60;99.90;;;;;;4193505;28;20273;-60
2023/12/27 03:14:58;;;;;;;40.43;21.73;;;1.60;99.90;;;;;;4190900;28;20691;-60
2023/12/27 03:16:59;;;;;;;35.43;19.97;;;1.60;99.90;;;;;;4193983;28;20791;-60
2023/12/27 03:19:01;;;;;;;41.63;20.90;;;1.70;99.90;;;;;;4192884;28;20429;-60
2023/12/27 03:21:02;;;;;;;39.77;21.03;;;1.70;99.90;;;;;;4192663;28;20281;-59
2023/12/27 03:23:03;;;;;;;44.97;22.27;;;1.70;99.90;;;;;;4193273;28;20327;-60
2023/12/27 03:25:05;;;;;;;34.77;19.90;;;1.70;99.90;;;;;;4192801;28;20322;-60
2023/12/27 03:27:06;;;;;;;36.60;20.23;;;1.70;99.90;;;;;;4193527;28;20269;-60
2023/12/27 03:29:07;;;;;;;39.07;20.77;;;1.60;99.90;;;;;;4192349;28;20273;-60
2023/12/27 03:31:08;;;;;;;36.90;19.20;;;1.60;99.90;;;;;;4193304;28;20315;-60
2023/12/27 03:33:10;;;;;;;36.27;20.03;;;1.60;99.90;;;;;;4191920;28;20729;-60
2023/12/27 03:35:11;;;;;;;36.20;21.77;;;1.60;99.90;;;;;;4193608;28;20327;-60
2023/12/27 03:37:12;;;;;;;39.03;20.33;;;1.60;99.90;;;;;;4192327;28;20253;-58
2023/12/27 03:39:13;;;;;;;39.40;22.17;;;1.60;99.90;;;;;;4192866;28;20334;-59
2023/12/27 03:41:14;;;;;;;42.67;21.43;;;1.50;99.90;;;;;;4191944;28;20775;-60
2023/12/27 03:43:16;;;;;;;37.40;20.17;;;1.50;99.90;;;;;;4192965;28;20668;-60
2023/12/27 03:45:18;;;;;;;44.77;22.10;;;1.50;99.90;;;;;;4192347;28;20653;-59
2023/12/27 03:47:20;;;;;;;41.43;21.37;;;1.50;99.90;;;;;;4193587;28;20612;-60
2023/12/27 03:49:21;;;;;;;47.43;21.80;;;1.50;99.90;;;;;;4192616;28;20762;-60
2023/12/27 03:51:22;;;;;;;43.73;21.47;;;1.40;99.90;;;;;;4192848;28;20315;-59
2023/12/27 03:53:23;;;;;;;41.00;20.30;;;1.40;99.90;;;;;;4192277;28;20798;-60
2023/12/27 03:55:25;;;;;;;37.80;21.63;;;1.40;99.90;;;;;;4192349;28;20265;-59
2023/12/27 03:57:26;;;;;;;34.90;19.43;;;1.30;99.90;;;;;;4192740;28;20311;-58
2023/12/27 03:59:27;;;;;;;39.40;20.53;;;1.30;99.90;;;;;;4192353;28;20614;-59
2023/12/27 04:01:29;;;;;;;39.97;19.37;;;1.30;99.90;;;;;;4193151;28;20258;-60
2023/12/27 04:03:30;;;;;;;41.63;21.97;;;1.30;99.90;;;;;;4191501;28;20285;-60
2023/12/27 04:05:31;;;;;;;45.30;21.60;;;1.30;99.90;;;;;;4193015;28;20300;-59
2023/12/27 04:07:32;;;;;;;41.57;20.87;;;1.30;99.90;;;;;;4192199;28;20315;-60
2023/12/27 04:09:33;;;;;;;36.23;20.97;;;1.30;99.90;;;;;;4193377;28;20261;-60
2023/12/27 04:11:43;;;;;;;34.60;19.43;;;1.20;99.90;;;;;;4192009;28;20273;-60
2023/12/27 04:13:44;;;;;;;34.70;18.75;;;1.20;99.90;;;;;;4193036;28;21051;-59
2023/12/27 04:15:46;;;;;;;35.57;20.30;;;1.20;99.90;;;;;;4191709;28;20554;-59
2023/12/27 04:17:47;;;;;;;39.47;18.90;;;1.20;99.90;;;;;;4193460;28;20335;-59
2023/12/27 04:19:48;;;;;;;34.87;17.60;;;1.20;99.90;;;;;;4192173;28;20265;-60
2023/12/27 04:21:49;;;;;;;28.03;16.83;;;1.20;99.90;;;;;;4193017;28;20345;-59
2023/12/27 04:23:50;;;;;;;24.87;15.30;;;1.20;99.90;;;;;;4192263;28;20733;-59
2023/12/27 04:25:51;;;;;;;28.83;15.70;;;1.20;99.90;;;;;;4192467;28;20261;-59
2023/12/27 04:27:52;;;;;;;26.53;16.37;;;1.30;99.90;;;;;;4192952;28;20319;-60
2023/12/27 04:29:53;;;;;;;30.80;17.13;;;1.30;99.90;;;;;;4192090;28;20783;-59
2023/12/27 04:31:55;;;;;;;29.57;16.77;;;1.20;99.90;;;;;;4192584;28;20262;-60
2023/12/27 04:33:56;;;;;;;26.27;15.80;;;1.20;99.90;;;;;;4192013;28;20729;-60
2023/12/27 04:35:57;;;;;;;31.33;16.40;;;1.20;99.90;;;;;;4193023;28;20254;-60
2023/12/27 04:37:58;;;;;;;33.10;17.60;;;1.20;99.90;;;;;;4192047;28;20315;-60
2023/12/27 04:39:59;;;;;;;30.37;17.80;;;1.20;99.90;;;;;;4192500;28;20749;-60
2023/12/27 04:42:00;;;;;;;32.90;16.53;;;1.10;99.90;;;;;;4191999;28;20261;-60
2023/12/27 04:44:02;;;;;;;30.57;17.27;;;1.10;99.90;;;;;;4195049;28;20293;-60
2023/12/27 04:46:06;;;;;;;34.47;17.33;;;1.10;99.90;;;;;;4194569;28;20262;-60
2023/12/27 04:48:07;;;;;;;34.17;17.90;;;1.10;99.90;;;;;;4195919;28;20281;-60
2023/12/27 04:50:09;;;;;;;33.37;18.03;;;1.10;99.90;;;;;;4194998;28;20277;-60
2023/12/27 04:52:10;;;;;;;38.07;18.70;;;1.10;99.90;;;;;;4195394;28;20273;-60
2023/12/27 04:54:11;;;;;;;31.87;17.93;;;1.20;99.90;;;;;;4195087;28;20310;-60
2023/12/27 04:56:12;;;;;;;31.53;18.63;;;1.10;99.90;;;;;;4195145;28;20303;-59
2023/12/27 04:58:13;;;;;;;35.77;17.07;;;1.10;99.90;;;;;;4195466;28;20266;-60
2023/12/27 05:00:15;;;;;;;30.13;17.80;;;1.10;99.90;;;;;;4195002;28;20330;-60
2023/12/27 05:02:16;;;;;;;34.17;17.00;;;1.10;99.90;;;;;;4194743;28;20258;-59
2023/12/27 05:04:17;;;;;;;32.33;17.87;;;1.10;99.90;;;;;;4194657;28;20297;-60
2023/12/27 05:06:18;;;;;;;37.67;18.60;;;1.20;99.90;;;;;;4194079;28;20323;-59
2023/12/27 05:08:19;;;;;;;27.60;16.20;;;1.20;99.90;;;;;;4194116;28;20302;-61
2023/12/27 05:10:21;;;;;;;32.37;17.80;;;1.20;99.90;;;;;;4195596;28;20269;-60
2023/12/27 05:12:22;;;;;;;35.53;19.00;;;1.20;99.90;;;;;;4194555;28;20627;-61
2023/12/27 05:14:23;;;;;;;37.07;18.97;;;1.30;99.90;;;;;;4195750;28;20261;-61
2023/12/27 05:16:24;;;;;;;33.33;17.60;;;1.30;99.90;;;;;;4194458;28;20266;-61
2023/12/27 05:18:25;;;;;;;29.70;16.07;;;1.20;99.90;;;;;;4195893;28;21024;-61
2023/12/27 05:20:26;;;;;;;28.60;15.37;;;1.30;99.90;;;;;;4194139;28;20266;-61
2023/12/27 05:22:29;;;;;;;33.80;17.57;;;1.30;99.90;;;;;;4195223;28;20339;-61
2023/12/27 05:24:31;;;;;;;28.63;16.27;;;1.30;99.90;;;;;;4194326;28;20310;-61
2023/12/27 05:26:32;;;;;;;30.17;15.97;;;1.30;99.90;;;;;;4194843;28;20269;-60
2023/12/27 05:28:33;;;;;;;25.80;15.93;;;1.30;99.90;;;;;;4194793;28;20266;-60
2023/12/27 05:30:35;;;;;;;30.57;15.27;;;1.30;99.90;;;;;;4194559;28;20659;-60
2023/12/27 05:32:36;;;;;;;27.77;16.40;;;1.20;99.90;;;;;;4195285;28;20319;-61
2023/12/27 05:34:37;;;;;;;26.83;16.30;;;1.20;99.90;;;;;;4193935;28;20648;-61
2023/12/27 05:36:38;;;;;;;32.23;16.17;;;1.10;99.90;;;;;;4195309;28;20266;-61
2023/12/27 05:38:40;;;;;;;30.73;17.20;;;1.10;99.90;;;;;;4193784;28;20273;-60
2023/12/27 05:40:41;;;;;;;34.37;18.33;;;1.10;99.90;;;;;;4195621;28;20266;-61
2023/12/27 05:42:42;;;;;;;32.77;17.87;;;1.20;99.90;;;;;;4194352;28;20737;-60
2023/12/27 05:44:43;;;;;;;37.57;19.17;;;1.10;99.90;;;;;;4195278;28;20327;-61
2023/12/27 05:46:44;;;;;;;38.17;18.00;;;1.10;99.90;;;;;;4194121;28;20277;-61
2023/12/27 05:48:46;;;;;;;41.40;18.87;;;1.10;99.90;;;;;;4195554;28;20273;-61
2023/12/27 05:50:47;;;;;;;34.57;17.43;;;1.10;99.90;;;;;;4193830;28;20303;-61
2023/12/27 05:52:49;;;;;;;36.03;18.63;;;1.10;99.90;;;;;;4195141;28;20338;-61
2023/12/27 05:54:50;;;;;;;37.67;17.73;;;1.00;99.90;;;;;;4193253;28;20277;-60
2023/12/27 05:56:53;;;;;;;37.50;18.17;;;1.00;99.90;;;;;;4194156;28;20266;-59
2023/12/27 05:58:54;;;;;;;36.40;18.67;;;1.00;99.90;;;;;;4194274;28;20277;-60
2023/12/27 06:00:55;;;;;;;34.87;18.97;;;1.00;99.90;;;;;;4193961;28;20652;-61
2023/12/27 06:02:56;;;;;;;37.00;18.17;;;1.00;99.90;;;;;;4194477;28;20301;-60
2023/12/27 06:04:57;;;;;;;34.97;18.20;;;1.00;99.90;;;;;;4193515;28;20777;-60
2023/12/27 06:06:58;;;;;;;37.93;19.73;;;0.90;99.90;;;;;;4193417;28;20277;-60
2023/12/27 06:08:59;;;;;;;35.57;19.27;;;0.90;99.90;;;;;;4193616;28;20743;-60
2023/12/27 06:11:01;;;;;;;31.27;17.57;;;0.90;99.90;;;;;;4194543;28;20741;-60
2023/12/27 06:13:03;;;;;;;31.83;16.47;;;0.80;99.90;;;;;;4193441;28;20625;-60
2023/12/27 06:15:05;;;;;;;34.30;19.67;;;0.80;99.90;;;;;;4194515;28;20265;-60
2023/12/27 06:17:06;;;;;;;33.70;17.50;;;0.80;99.90;;;;;;4192983;28;20285;-58
2023/12/27 06:19:07;;;;;;;33.40;16.53;;;0.80;99.90;;;;;;4194987;28;20322;-60
2023/12/27 06:21:09;;;;;;;35.17;17.17;;;0.80;99.90;;;;;;4193669;28;20311;-60
2023/12/27 06:23:10;;;;;;;33.00;16.07;;;0.80;99.90;;;;;;4194356;28;20269;-60
2023/12/27 06:25:11;;;;;;;30.27;15.53;;;0.80;99.90;;;;;;4193465;28;20338;-60
2023/12/27 06:27:12;;;;;;;31.50;15.90;;;0.80;99.90;;;;;;4193330;28;20257;-61
2023/12/27 06:29:14;;;;;;;27.77;15.30;;;0.80;99.90;;;;;;4193488;28;20315;-61
2023/12/27 06:31:15;;;;;;;34.93;16.07;;;0.90;99.90;;;;;;4193420;28;20312;-61
2023/12/27 06:33:16;;;;;;;26.10;16.03;;;0.90;99.90;;;;;;4194257;28;20315;-59
2023/12/27 06:35:17;;;;;;;33.00;16.13;;;0.90;99.90;;;;;;4193150;28;20327;-61
2023/12/27 06:37:18;;;;;;;30.00;15.93;;;1.00;99.90;;;;;;4194048;28;20265;-61
2023/12/27 06:39:19;;;;;;;31.23;15.40;;;1.10;99.90;;;;;;4192410;28;20599;-61
2023/12/27 06:41:21;;;;;;;24.27;13.33;;;1.10;99.90;;;;;;4193948;28;20339;-61
2023/12/27 06:43:22;;;;;;;24.43;12.40;;;1.20;99.90;;;;;;4193015;28;20647;-61
2023/12/27 06:45:23;;;;;;;19.27;10.87;;;1.40;99.90;;;;;;4194085;28;20289;-61
2023/12/27 06:47:24;;;;;;;21.13;11.27;;;1.70;99.90;;;;;;4193002;28;20664;-61
2023/12/27 06:49:25;;;;;;;21.73;10.93;;;2.00;99.90;;;;;;4194321;28;20250;-61
2023/12/27 06:51:26;;;;;;;20.00;10.53;;;2.50;99.90;;;;;;4192968;28;20253;-59
2023/12/27 06:53:28;;;;;;;16.87;8.97;;;3.00;99.90;;;;;;4193966;28;20299;-60
2023/12/27 06:55:29;;;;;;;16.27;8.80;;;3.50;99.90;;;;;;4193209;28;20882;-59
2023/12/27 06:57:30;;;;;;;12.73;7.77;;;3.90;99.90;;;;;;4192724;28;20320;-61
2023/12/27 06:59:32;;;;;;;13.83;7.37;;;4.40;99.90;;;;;;4193088;28;20265;-61
2023/12/27 07:01:33;;;;;;;12.37;7.13;;;4.40;99.90;;;;;;4193130;28;20086;-61
2023/12/27 07:03:34;;;;;;;11.57;7.87;;;4.50;99.90;;;;;;4192863;28;20040;-61
2023/12/27 07:05:36;;;;;;;11.00;7.07;;;4.60;99.90;;;;;;4192689;28;20048;-61
2023/12/27 07:07:38;;;;;;;11.27;6.90;;;4.90;99.90;;;;;;4193740;28;20024;-61
2023/12/27 07:09:39;;;;;;;13.87;7.60;;;4.90;99.90;;;;;;4191871;28;20078;-61
2023/12/27 07:11:40;;;;;;;11.00;7.10;;;5.10;99.90;;;;;;4193777;28;20082;-62
2023/12/27 07:13:42;;;;;;;11.40;7.00;;;5.00;99.90;;;;;;4192442;28;20074;-61
2023/12/27 07:15:43;;;;;;;12.27;7.90;;;5.10;99.90;;;;;;4193293;28;20037;-61
2023/12/27 07:17:44;;;;;;;13.60;8.10;;;5.30;99.90;;;;;;4192435;28;20028;-59
2023/12/27 07:19:45;;;;;;;11.93;7.53;;;5.40;99.90;;;;;;4193370;28;20040;-62
2023/12/27 07:21:46;;;;;;;11.93;7.33;;;5.90;99.90;;;;;;4192576;28;20029;-62
2023/12/27 07:23:48;;;;;;;13.67;7.63;;;6.20;99.90;;;;;;4192989;28;20036;-62
2023/12/27 07:25:49;;;;;;;9.77;6.77;;;6.60;99.90;;;;;;4192409;28;20025;-62
2023/12/27 07:27:50;;;;;;;12.20;6.90;;;6.90;99.90;;;;;;4193207;28;20381;-61
2023/12/27 07:29:51;;;;;;;12.87;7.17;;;7.20;99.90;;;;;;4192489;28;20044;-61
2023/12/27 07:31:52;;;;;;;11.43;7.40;;;7.40;99.90;;;;;;4192688;28;20477;-62
2023/12/27 07:33:54;;;;;;;12.87;6.90;;;7.50;99.90;;;;;;4193351;28;20133;-61
2023/12/27 07:35:55;;;;;;;14.27;7.30;;;7.60;99.90;;;;;;4192557;28;20446;-62
2023/12/27 07:37:56;;;;;;;10.90;6.77;;;7.80;99.90;;;;;;4193046;28;20448;-61
2023/12/27 07:39:58;;;;;;;9.53;6.30;;;7.70;99.90;;;;;;4192275;28;20043;-61
2023/12/27 07:41:59;;;;;;;14.00;7.90;;;8.00;99.90;;;;;;4192604;28;20888;-60
2023/12/27 07:44:00;;;;;;;8.63;6.90;;;8.40;99.90;;;;;;4191651;28;20102;-60
2023/12/27 07:46:02;;;;;;;10.30;6.77;;;8.70;99.90;;;;;;4193047;28;20832;-60
2023/12/27 07:48:03;;;;;;;11.70;7.53;;;8.60;99.90;;;;;;4191799;28;20044;-60
2023/12/27 07:50:05;;;;;;;21.83;12.17;;;8.20;99.90;;;;;;4192626;28;20041;-59
2023/12/27 07:52:06;;;;;;;21.53;11.37;;;7.80;99.90;;;;;;4191544;28;20040;-60
2023/12/27 07:54:08;;;;;;;18.93;12.77;;;7.30;99.90;;;;;;4192650;28;20382;-60
2023/12/27 07:56:12;;;;;;;16.03;10.93;;;7.20;99.90;;;;;;4191641;28;20129;-59
2023/12/27 07:58:13;;;;;;;18.07;10.67;;;7.50;99.90;;;;;;4192601;28;20384;-61
2023/12/27 08:00:15;;;;;;;20.43;12.93;;;7.70;99.90;;;;;;4192169;28;20118;-61
2023/12/27 08:02:16;;;;;;;25.20;16.33;;;7.90;99.90;;;;;;4192085;28;20036;-61
2023/12/27 08:04:17;;;;;;;27.63;17.73;;;8.20;99.90;;;;;;4192483;28;20504;-61
2023/12/27 08:06:18;;;;;;;32.57;19.23;;;8.60;99.90;;;;;;4191847;28;20074;-60
2023/12/27 08:08:19;;;;;;;27.03;17.53;;;9.00;99.90;;;;;;4192813;28;20477;-61
2023/12/27 08:10:21;;;;;;;31.70;18.73;;;9.30;99.90;;;;;;4190031;28;20889;-61
2023/12/27 08:12:22;;;;;;;17.13;11.60;;;9.40;99.90;;;;;;4192568;28;20036;-61
2023/12/27 08:14:23;;;;;;;23.23;15.17;;;9.70;99.90;;;;;;4191565;28;20086;-61
2023/12/27 08:16:24;;;;;;;21.80;13.13;;;9.60;99.90;;;;;;4192890;28;20841;-60
2023/12/27 08:18:26;;;;;;;17.43;12.43;;;9.70;99.90;;;;;;4192924;28;20040;-61
2023/12/27 08:20:27;;;;;;;20.70;13.40;;;9.80;99.90;;;;;;4196389;28;20484;-61
2023/12/27 08:22:28;;;;;;;15.90;9.77;;;10.10;99.90;;;;;;4195054;28;20078;-60
2023/12/27 08:24:30;;;;;;;11.47;7.90;;;10.30;99.90;;;;;;4195947;28;20374;-60
2023/12/27 08:26:31;;;;;;;10.77;7.43;;;10.30;99.90;;;;;;4194630;28;20443;-61
2023/12/27 08:28:35;;;;;;;10.50;5.43;;;10.40;99.90;;;;;;4195821;28;20078;-61
2023/12/27 08:30:37;;;;;;;9.10;7.00;;;10.60;99.90;;;;;;4192650;28;20052;-60
2023/12/27 08:32:39;;;;;;;8.37;6.83;;;10.90;99.90;;;;;;4195220;28;20097;-59
2023/12/27 08:34:40;;;;;;;9.77;6.10;;;11.30;99.90;;;;;;4195607;28;20064;-60
2023/12/27 08:36:45;;;;;;;9.83;6.20;;;11.50;99.90;;;;;;4194068;28;20045;-60
2023/12/27 08:38:46;;;;;;;12.27;6.70;;;11.50;99.90;;;;;;4195609;28;20025;-60
2023/12/27 08:40:47;;;;;;;12.33;7.60;;;11.60;99.90;;;;;;4194082;28;20040;-60
2023/12/27 08:42:48;;;;;;;15.33;8.00;;;12.00;99.90;;;;;;4195713;28;20059;-60
2023/12/27 08:44:50;;;;;;;9.60;6.00;;;12.20;99.90;;;;;;4194067;28;20049;-60
2023/12/27 08:46:51;;;;;;;9.57;5.00;;;12.30;99.90;;;;;;4195987;28;20028;-59
2023/12/27 08:48:52;;;;;;;5.67;3.53;;;12.40;99.90;;;;;;4194814;28;20098;-60
2023/12/27 08:50:53;;;;;;;6.70;4.23;;;12.60;99.90;;;;;;4195803;28;20137;-60
2023/12/27 08:52:55;;;;;;;6.97;3.77;;;12.70;99.90;;;;;;4194038;28;20524;-61
2023/12/27 08:54:56;;;;;;;9.17;4.27;;;12.90;99.90;;;;;;4195175;28;20040;-61
2023/12/27 08:56:57;;;;;;;10.17;3.80;;;13.00;99.90;;;;;;4194552;28;20538;-60
2023/12/27 08:58:59;;;;;;;13.05;4.85;;;13.10;99.90;;;;;;4195477;28;20078;-60
2023/12/27 09:01:01;;;;;;;10.93;4.45;;;13.00;99.90;;;;;;4194538;28;20028;-61
2023/12/27 09:03:03;;;;;;;12.47;6.23;;;12.60;99.90;;;;;;4193935;28;20052;-61
2023/12/27 09:05:08;;;;;;;7.10;4.93;;;12.10;99.90;;;;;;4193821;28;20052;-60
2023/12/27 09:07:09;;;;;;;10.10;5.07;;;12.00;99.90;;;;;;4193684;28;20045;-60
2023/12/27 09:09:11;;;;;;;7.83;4.20;;;12.10;99.90;;;;;;4194672;28;20113;-61
2023/12/27 09:11:13;;;;;;;8.47;5.13;;;12.20;99.90;;;;;;4193401;28;20186;-60
2023/12/27 09:13:15;;;;;;;10.37;5.47;;;12.10;99.90;;;;;;4195053;28;20024;-60
2023/12/27 09:15:17;;;;;;;7.83;4.60;;;12.10;99.90;;;;;;4193015;28;20053;-61
2023/12/27 09:17:18;;;;;;;9.03;4.67;;;11.90;99.90;;;;;;4194788;28;20052;-60
2023/12/27 09:19:19;;;;;;;5.43;4.00;;;11.60;99.90;;;;;;4194550;28;20090;-61
2023/12/27 09:21:20;;;;;;;11.67;6.03;;;11.00;99.90;;;;;;4194757;28;20114;-60
2023/12/27 09:23:22;;;;;;;10.17;5.50;;;10.70;99.90;;;;;;4193390;28;20045;-61
2023/12/27 09:25:23;;;;;;;5.80;3.57;;;10.50;99.90;;;;;;4194284;28;20044;-61
2023/12/27 09:27:25;;;;;;;16.10;8.23;;;10.30;99.90;;;;;;4193561;28;20074;-60
2023/12/27 09:29:27;;;;;;;12.93;7.50;;;10.20;99.90;;;;;;4193979;28;20465;-60
2023/12/27 09:31:30;;;;;;;3.33;2.00;;;10.10;99.90;;;;;;4193306;28;20070;-60
2023/12/27 09:33:31;;;;;;;6.57;2.70;;;10.00;99.90;;;;;;4193945;28;20048;-60
2023/12/27 09:35:32;;;;;;;8.87;2.87;;;10.00;99.90;;;;;;4193911;28;20089;-60
2023/12/27 09:37:35;;;;;;;4.77;2.50;;;9.80;99.90;;;;;;4194220;28;20379;-60
2023/12/27 09:39:37;;;;;;;5.23;1.70;;;9.70;99.90;;;;;;4193913;28;20074;-60
2023/12/27 09:41:39;;;;;;;9.10;2.23;;;9.60;99.90;;;;;;4193706;28;20078;-60
2023/12/27 09:43:42;;;;;;;2.13;1.30;;;9.50;99.90;;;;;;4194441;28;20499;-60
2023/12/27 09:45:45;;;;;;;7.97;2.80;;;9.40;99.90;;;;;;4193368;28;20037;-60
2023/12/27 09:47:53;;;;;;;8.77;3.07;;;9.50;99.90;;;;;;4194698;28;20431;-60
2023/12/27 09:49:56;;;;;;;8.03;2.63;;;9.40;99.90;;;;;;4193224;28;20086;-60
2023/12/27 09:51:58;;;;;;;4.40;2.50;;;9.30;99.90;;;;;;4194760;28;20376;-61
2023/12/27 09:53:59;;;;;;;6.03;3.00;;;9.30;99.90;;;;;;4193320;28;20090;-61
2023/12/27 09:56:01;;;;;;;5.90;2.30;;;9.40;99.90;;;;;;4194552;28;20036;-60
2023/12/27 09:58:04;;;;;;;7.83;3.00;;;9.30;99.90;;;;;;4193317;28;20025;-60
2023/12/27 10:00:09;;;;;;;8.33;2.53;;;9.30;99.90;;;;;;4194702;28;20021;-61
2023/12/27 10:02:17;;;;;;;4.87;2.60;;;9.30;99.90;;;;;;4191282;28;20166;-61
2023/12/27 10:04:25;;;;;;;4.73;2.53;;;9.30;99.90;;;;;;4194869;28;20040;-61
2023/12/27 10:06:35;;;;;;;4.73;2.30;;;9.30;99.90;;;;;;4193222;28;20037;-61
2023/12/27 10:08:36;;;;;;;4.93;3.20;;;9.40;99.90;;;;;;4193992;28;20044;-61
2023/12/27 10:10:40;;;;;;;5.33;1.80;;;9.30;99.90;;;;;;4192942;28;20094;-60
2023/12/27 10:12:41;;;;;;;5.57;2.47;;;9.30;99.90;;;;;;4194034;28;20110;-61
2023/12/27 10:14:43;;;;;;;8.40;3.03;;;9.30;99.90;;;;;;4193257;28;20832;-61
2023/12/27 10:16:45;;;;;;;10.10;3.93;;;9.30;99.90;;;;;;4193364;28;20025;-61
2023/12/27 10:18:49;;;;;;;6.53;2.77;;;9.40;99.90;;;;;;4193621;28;20059;-61
2023/12/27 10:20:51;;;;;;;8.33;2.97;;;9.40;99.90;;;;;;4193480;28;20407;-61
2023/12/27 10:22:52;;;;;;;10.13;3.53;;;9.40;99.90;;;;;;4193773;28;20036;-61
2023/12/27 10:24:53;;;;;;;7.33;3.03;;;9.50;99.90;;;;;;4193010;28;20070;-61
2023/12/27 10:26:57;;;;;;;3.80;2.10;;;9.60;99.90;;;;;;4193176;28;20045;-61